Portada
METAR-TAF:

METAR-TAF

Aeroports :

Hartness State Airport

Springfield, Vermont, Estats Units d'Amèrica

latitud: 43-20-33N, longitud: 072-31-18W, altitud: 175 m

Observació

L'informe es va fer fa 10 minuts, a les 21:54 UTC
Vent 16 kt del Oest/Nord-Oest amb ràfegues de 29 kt
Temperatura 3°C
Humitat 44%
Pressió 1001 hPa
Visibilitat: 16.1 km
Cel cobert a una alçada de 5500 ft

METAR: KVSF 012154Z AUTO 29016G29KT 10SM OVC055 03/M08 A2955 RMK AO2 PK WND 27031/2130 PRESRR SLP012 T00281083

Hora: 17:04 (22:04 UTC)


TAF: manca

Observacions i pronòstics meteorològics de més de 4000 aeroports (METAR i TAF).

Les estacions disponibles són els punts grocs i vermells al mapa.

Posi el ratolí al punt desitjat per veure el nom de l'estació.

Feu clic per veure les observacions i els pronòstics meteorològics.

Per canviar el mapa: feu clic els botons verds amb una creu de color negre per apropar; al botó verd amb un guió per allunyar la imatge; o en les fletxes verdes per a mapes adjacents.


METAR-TAF: